Time;durP1;ratioP1;P1;durP2;ratioP2;P2;SDS_P1;SDS_P2;PMS_P1;PMS_P2;Temp;Humidity;BMP_temperature;BMP_pressure;BME280_temperature;BME280_humidity;BME280_pressure;Samples;Min_cycle;Max_cycle;Signal;HPM_P1;HPM_P2
2022/12/25 00:03:09;;;;;;;23.00;16.20;;;;;;;3.50;91.89;100618.37;3407407;81;20904;-78
2022/12/25 00:08:19;;;;;;;26.65;16.80;;;;;;;3.50;91.96;100624.80;3393308;82;21502;-78
2022/12/25 00:13:33;;;;;;;24.10;16.85;;;;;;;3.48;91.88;100625.14;3406750;83;21179;-78
2022/12/25 00:18:42;;;;;;;21.02;14.60;;;;;;;3.48;91.98;100635.42;3327740;83;20983;-78
2022/12/25 00:23:44;;;;;;;27.15;16.23;;;;;;;3.49;91.98;100635.49;3399998;82;20975;-78
2022/12/25 00:29:12;;;;;;;24.72;14.50;;;;;;;3.46;91.93;100644.76;3430854;82;20971;-78
2022/12/25 00:34:20;;;;;;;14.90;10.25;;;;;;;3.47;92.14;100655.50;3415674;83;21019;-78
2022/12/25 00:39:20;;;;;;;21.62;13.78;;;;;;;3.47;92.18;100665.39;3387890;82;21707;-78
2022/12/25 00:44:14;;;;;;;17.10;12.13;;;;;;;3.47;92.24;100676.06;3436748;82;20983;-78
2022/12/25 00:49:15;;;;;;;20.95;13.05;;;;;;;3.47;92.20;100673.48;3404839;83;20928;-78
2022/12/25 00:54:09;;;;;;;18.37;11.50;;;;;;;3.48;92.24;100679.12;3400845;83;21085;-78
2022/12/25 00:59:00;;;;;;;18.98;11.40;;;;;;;3.49;92.16;100698.86;3387898;81;21450;-78
2022/12/25 01:03:51;;;;;;;18.23;10.88;;;;;;;3.48;92.28;100719.83;3436035;81;21761;-78
2022/12/25 01:13:45;;;;;;;15.15;9.88;;;;;;;3.50;92.23;100736.62;3284560;83;20989;-78
2022/12/25 01:18:37;;;;;;;16.48;10.88;;;;;;;3.51;92.19;100747.39;3244660;84;21023;-79
2022/12/25 01:23:28;;;;;;;16.23;10.68;;;;;;;3.51;92.24;100744.81;3255850;84;21009;-78
2022/12/25 01:28:19;;;;;;;16.70;10.95;;;;;;;3.51;92.14;100761.53;3267648;84;21495;-79
2022/12/25 01:33:10;;;;;;;16.57;11.75;;;;;;;3.50;92.14;100762.33;3282360;84;21405;-78
2022/12/25 01:38:01;;;;;;;14.00;9.35;;;;;;;3.48;92.13;100754.95;3303223;85;20996;-78
2022/12/25 01:48:08;;;;;;;16.67;10.03;;;;;;;3.50;92.24;100740.47;3318840;81;21998;-78
2022/12/25 01:52:59;;;;;;;15.53;10.32;;;;;;;3.50;92.25;100752.05;3355691;84;22043;-78
2022/12/25 01:57:50;;;;;;;21.97;11.45;;;;;;;3.50;92.14;100753.33;3309646;84;20957;-78
2022/12/25 02:02:43;;;;;;;15.93;10.63;;;;;;;3.51;92.25;100749.95;3322367;84;20993;-78
2022/12/25 02:07:40;;;;;;;15.35;10.30;;;;;;;3.51;92.02;100755.10;3305482;84;21049;-78
2022/12/25 02:12:33;;;;;;;20.25;11.88;;;;;;;3.49;92.13;100739.60;3282021;84;21013;-78
2022/12/25 02:17:33;;;;;;;17.48;10.98;;;;;;;3.50;92.14;100731.47;3279710;84;21496;-78
2022/12/25 02:22:44;;;;;;;15.43;9.75;;;;;;;3.48;92.22;100733.97;3324318;84;20988;-78
2022/12/25 02:28:02;;;;;;;16.90;10.48;;;;;;;3.47;92.05;100736.09;3347561;84;20988;-78
2022/12/25 02:38:20;;;;;;;16.70;11.08;;;;;;;3.38;92.14;100744.25;3339458;85;21585;-78
2022/12/25 03:35:24;;;;;;;17.98;10.72;;;;;;;3.41;92.36;100763.64;3337568;84;21094;-78
2022/12/25 04:37:22;;;;;;;25.35;14.33;;;;;;;3.40;92.82;100787.61;3237689;85;21592;-78
2022/12/25 04:42:14;;;;;;;21.07;12.68;;;;;;;3.40;92.67;100790.17;3268276;86;21050;-78
2022/12/25 04:47:05;;;;;;;24.63;13.35;;;;;;;3.40;92.56;100787.61;3238432;87;21559;-79
2022/12/25 04:51:56;;;;;;;27.42;14.13;;;;;;;3.39;92.59;100779.82;3295131;85;20968;-79
2022/12/25 04:56:48;;;;;;;31.00;14.18;;;;;;;3.38;92.70;100781.52;3328298;85;21555;-79
2022/12/25 05:01:39;;;;;;;28.40;15.85;;;;;;;3.39;92.76;100787.53;3365739;84;20980;-79
2022/12/25 05:06:30;;;;;;;29.15;14.25;;;;;;;3.40;92.83;100786.32;3297937;84;20976;-79
2022/12/25 05:11:21;;;;;;;25.80;12.58;;;;;;;3.41;92.61;100794.49;3309817;84;21052;-79
2022/12/25 05:16:17;;;;;;;27.40;13.95;;;;;;;3.40;92.44;100808.17;3317067;85;21026;-78
2022/12/25 05:21:11;;;;;;;20.88;12.25;;;;;;;3.40;92.65;100806.88;3317286;85;21597;-79
2022/12/25 05:26:07;;;;;;;24.60;13.25;;;;;;;3.41;92.46;100811.61;3328455;85;21019;-79
2022/12/25 05:30:58;;;;;;;26.55;13.00;;;;;;;3.41;92.57;100803.48;3330880;84;21699;-78
2022/12/25 05:35:49;;;;;;;27.90;15.15;;;;;;;3.41;92.60;100803.48;3330717;85;20980;-79
2022/12/25 05:40:40;;;;;;;26.17;13.60;;;;;;;3.40;92.56;100801.74;3290142;85;21172;-79
2022/12/25 05:45:31;;;;;;;35.78;18.15;;;;;;;3.39;92.61;100801.25;3304475;83;21100;-79
2022/12/25 05:50:22;;;;;;;34.70;16.90;;;;;;;3.40;92.82;100805.59;3347110;83;21626;-78
2022/12/25 05:55:15;;;;;;;36.13;19.27;;;;;;;3.40;92.78;100821.02;3341947;84;20972;-79
2022/12/25 06:00:08;;;;;;;32.00;17.60;;;;;;;3.42;92.85;100824.55;3341571;84;21496;-79
2022/12/25 06:05:03;;;;;;;37.67;18.42;;;;;;;3.41;92.77;100829.19;3331867;84;21047;-79
2022/12/25 06:09:54;;;;;;;35.30;18.75;;;;;;;3.40;92.71;100844.16;3309619;84;21011;-79
2022/12/25 06:14:45;;;;;;;35.23;19.15;;;;;;;3.38;92.72;100854.77;3356676;84;20980;-79
2022/12/25 06:19:36;;;;;;;39.55;20.37;;;;;;;3.42;92.97;100858.38;3391013;84;21465;-79
2022/12/25 06:24:27;;;;;;;38.10;18.77;;;;;;;3.42;92.96;100855.39;3376517;84;20999;-78
2022/12/25 06:29:19;;;;;;;36.55;19.02;;;;;;;3.46;93.00;100871.84;3318803;84;21528;-78
2022/12/25 06:34:10;;;;;;;32.48;19.62;;;;;;;3.48;93.05;100875.77;3356176;84;21743;-78
2022/12/25 06:39:01;;;;;;;38.10;19.87;;;;;;;3.49;92.94;100878.42;3346200;84;20960;-79
2022/12/25 06:43:56;;;;;;;33.10;19.35;;;;;;;3.47;92.88;100891.98;3379029;82;20964;-79
2022/12/25 06:48:48;;;;;;;31.57;18.52;;;;;;;3.48;92.88;100901.06;3305739;85;21459;-79
2022/12/25 06:53:39;;;;;;;26.75;16.05;;;;;;;3.47;92.76;100910.89;3326394;85;21487;-79
2022/12/25 06:58:32;;;;;;;30.70;17.23;;;;;;;3.48;92.93;100925.90;3302271;84;21072;-77
2022/12/25 07:03:25;;;;;;;32.48;18.87;;;;;;;3.51;92.96;100917.06;3302494;85;21238;-78
2022/12/25 07:08:16;;;;;;;30.65;16.85;;;;;;;3.52;92.90;100931.66;3334990;84;21088;-78
2022/12/25 07:13:07;;;;;;;31.25;16.97;;;;;;;3.54;93.03;100930.05;3304717;85;21011;-78
2022/12/25 07:17:58;;;;;;;32.95;18.12;;;;;;;3.53;92.86;100944.59;3295558;84;21499;-79
2022/12/25 07:22:50;;;;;;;33.33;17.30;;;;;;;3.53;92.95;100947.58;3314215;85;21015;-78
2022/12/25 07:27:41;;;;;;;32.80;17.87;;;;;;;3.55;92.88;100951.10;3314117;85;20930;-79
2022/12/25 07:32:32;;;;;;;35.38;18.32;;;;;;;3.57;92.96;100955.50;3280066;85;21566;-78
2022/12/25 07:37:24;;;;;;;35.03;18.90;;;;;;;3.59;92.97;100958.15;3300699;85;21014;-78
2022/12/25 07:42:15;;;;;;;36.88;19.20;;;;;;;3.61;93.08;100962.95;3314557;85;22005;-79
2022/12/25 07:47:06;;;;;;;38.75;19.98;;;;;;;3.64;93.28;100972.12;3315299;84;20968;-79
2022/12/25 07:52:00;;;;;;;30.68;17.95;;;;;;;3.68;93.26;100979.16;3327617;84;21467;-79
2022/12/25 07:56:52;;;;;;;38.40;20.90;;;;;;;3.69;93.05;100986.09;3346921;84;21012;-78
2022/12/25 08:01:44;;;;;;;31.27;15.90;;;;;;;3.71;93.13;100994.75;3393523;84;20970;-79
2022/12/25 08:06:35;;;;;;;33.70;19.15;;;;;;;3.74;93.13;101001.34;3348312;84;22175;-79
2022/12/25 08:11:30;;;;;;;35.80;18.35;;;;;;;3.77;93.05;101015.65;3363997;83;21026;-79
2022/12/25 08:16:40;;;;;;;36.25;20.02;;;;;;;3.79;93.31;101016.60;3372990;83;21425;-78
2022/12/25 08:21:27;;;;;;;51.00;24.00;;;;;;;3.81;93.12;101025.27;3371006;83;21203;-78
2022/12/25 08:26:23;;;;;;;40.20;21.05;;;;;;;3.85;93.38;101026.30;3339982;84;21329;-79
2022/12/25 08:31:22;;;;;;;50.92;24.37;;;;;;;3.89;93.36;101036.34;3381716;82;21978;-78
2022/12/25 08:36:14;;;;;;;57.45;27.13;;;;;;;3.92;93.39;101042.93;3362864;84;21494;-78
2022/12/25 08:41:07;;;;;;;46.20;23.60;;;;;;;3.97;93.46;101036.29;3315951;83;21470;-78
2022/12/25 08:45:58;;;;;;;53.95;24.82;;;;;;;4.06;93.59;101034.19;3377106;83;21635;-78
2022/12/25 08:50:53;;;;;;;52.40;27.37;;;;;;;4.16;93.59;101049.24;3330521;84;20992;-78
2022/12/25 08:55:46;;;;;;;43.30;22.32;;;;;;;4.26;93.62;101055.73;3283024;84;20969;-77
2022/12/25 09:00:45;;;;;;;49.55;22.40;;;;;;;4.33;93.40;101061.66;3331441;84;21118;-78
2022/12/25 09:05:49;;;;;;;47.35;23.87;;;;;;;4.41;93.37;101063.30;3300148;85;21080;-78
2022/12/25 09:10:54;;;;;;;;;;;;;;;;;;;;;
2022/12/25 09:15:43;;;;;;;51.85;23.75;;;;;;;4.51;93.57;101075.80;3319092;84;21020;-77
2022/12/25 09:20:36;;;;;;;45.38;26.57;;;;;;;4.53;93.51;101089.62;3318935;84;20967;-78
2022/12/25 09:25:30;;;;;;;51.23;24.92;;;;;;;4.58;93.56;101093.30;3296403;84;20955;-78
2022/12/25 09:30:22;;;;;;;48.70;25.02;;;;;;;4.65;93.45;101105.17;3342636;84;20982;-77
2022/12/25 09:35:17;;;;;;;44.53;23.62;;;;;;;4.73;93.38;101105.14;3360996;84;21568;-78
2022/12/25 09:40:16;;;;;;;43.92;24.20;;;;;;;4.95;93.29;101095.02;3348957;84;20998;-78
2022/12/25 09:45:21;;;;;;;31.70;18.87;;;;;;;5.20;92.95;101099.98;3324003;84;20946;-78
2022/12/25 09:50:20;;;;;;;28.30;18.82;;;;;;;5.24;92.87;101077.79;3330530;83;20979;-78
2022/12/25 09:55:26;;;;;;;31.57;18.87;;;;;;;5.25;92.68;101078.28;3302577;84;20960;-79
2022/12/25 10:00:22;;;;;;;33.08;19.17;;;;;;;5.19;92.45;101067.30;3310668;83;21015;-78
2022/12/25 10:05:36;;;;;;;31.50;19.35;;;;;;;5.24;92.66;101087.72;3284637;83;20976;-78
2022/12/25 10:10:59;;;;;;;37.23;22.13;;;;;;;5.28;92.84;101090.90;3357473;83;21342;-78
2022/12/25 10:16:34;;;;;;;33.83;21.57;;;;;;;5.32;92.60;101079.90;3347786;84;21027;-78
2022/12/25 10:21:27;;;;;;;36.58;22.00;;;;;;;5.37;92.57;101080.11;3331267;83;21593;-78
2022/12/25 10:26:23;;;;;;;34.63;21.40;;;;;;;5.42;92.47;101081.58;3321418;85;21498;-78
2022/12/25 10:31:25;;;;;;;37.48;22.42;;;;;;;5.43;92.46;101083.36;3276251;83;22875;-79
2022/12/25 10:36:20;;;;;;;33.45;21.57;;;;;;;5.48;92.46;101087.03;3339114;84;21494;-78
2022/12/25 10:42:09;;;;;;;32.42;20.05;;;;;;;5.50;92.26;101085.39;3339257;83;20989;-78
2022/12/25 10:47:03;;;;;;;33.18;18.80;;;;;;;5.54;92.22;101076.97;3318002;83;20993;-79
2022/12/25 10:51:54;;;;;;;30.97;20.32;;;;;;;5.60;91.96;101083.69;3343907;83;20991;-79
2022/12/25 10:57:09;;;;;;;30.65;19.05;;;;;;;5.66;91.92;101080.07;3354156;83;21272;-79
2022/12/25 11:02:20;;;;;;;31.17;19.20;;;;;;;5.76;91.65;101083.03;3358302;83;22620;-78
2022/12/25 11:07:22;;;;;;;32.15;19.75;;;;;;;5.76;91.61;101077.87;3304149;85;20988;-77
2022/12/25 11:12:23;;;;;;;28.50;18.55;;;;;;;5.80;91.64;101079.79;3265544;85;21497;-79
2022/12/25 11:17:21;;;;;;;27.17;18.07;;;;;;;5.83;91.50;101085.06;3280047;84;20992;-77
2022/12/25 11:22:16;;;;;;;25.68;16.90;;;;;;;5.79;91.41;101067.28;3272440;85;20984;-77
2022/12/25 11:27:19;;;;;;;24.92;16.82;;;;;;;5.79;91.41;101067.28;3286750;85;21178;-77
2022/12/25 11:32:24;;;;;;;27.42;16.23;;;;;;;5.82;91.04;101070.41;3265459;85;21584;-76
2022/12/25 11:37:35;;;;;;;24.60;15.80;;;;;;;5.88;91.24;101070.27;3253851;85;20999;-78
2022/12/25 11:42:56;;;;;;;;;;;;;;;;;;;;;
2022/12/25 11:47:59;;;;;;;25.75;16.07;;;;;;;5.94;91.29;101069.63;3324421;83;21020;-78
2022/12/25 11:52:54;;;;;;;25.12;17.17;;;;;;;5.90;91.13;101062.17;3309725;84;21562;-77
2022/12/25 11:57:57;;;;;;;25.02;17.15;;;;;;;5.85;90.97;101067.97;3315605;83;21121;-77
2022/12/25 12:02:58;;;;;;;26.05;17.00;;;;;;;5.83;91.37;101072.16;3327616;83;21011;-78
2022/12/25 12:07:59;;;;;;;24.75;18.02;;;;;;;5.81;91.48;101083.73;3319362;83;20983;-77
2022/12/25 12:13:11;;;;;;;28.27;19.37;;;;;;;5.75;91.43;101087.74;3306792;84;21292;-77
2022/12/25 12:18:30;;;;;;;29.90;19.57;;;;;;;5.67;91.51;101094.75;3305273;84;21497;-77
2022/12/25 12:23:22;;;;;;;25.20;16.75;;;;;;;5.58;91.43;101094.36;3313021;83;21035;-78
2022/12/25 12:28:24;;;;;;;25.75;16.55;;;;;;;5.52;91.56;101097.95;3271278;84;20990;-78
2022/12/25 12:33:19;;;;;;;28.30;18.57;;;;;;;5.45;91.60;101117.83;3378394;83;21050;-78
2022/12/25 12:38:14;;;;;;;26.73;17.15;;;;;;;5.39;91.76;101115.00;3274135;84;21495;-78
2022/12/25 12:43:26;;;;;;;26.00;16.87;;;;;;;5.35;91.94;101126.45;3330681;83;21628;-78
2022/12/25 12:48:28;;;;;;;26.90;17.35;;;;;;;5.32;91.96;101134.46;3330504;83;20990;-77
2022/12/25 12:53:27;;;;;;;25.97;17.00;;;;;;;5.30;92.14;101121.50;3312337;84;21000;-79
2022/12/25 12:58:29;;;;;;;27.10;17.20;;;;;;;5.30;92.26;101116.34;3334195;83;21079;-78
2022/12/25 13:04:04;;;;;;;27.05;18.00;;;;;;;5.31;92.26;101119.41;3358990;83;21092;-78
2022/12/25 13:09:04;;;;;;;27.48;16.82;;;;;;;5.32;92.36;101101.81;3386818;83;21177;-79
2022/12/25 13:14:00;;;;;;;23.83;15.68;;;;;;;5.30;92.31;101102.58;3262756;86;21195;-78
2022/12/25 13:18:53;;;;;;;26.37;15.95;;;;;;;5.31;92.34;101096.20;3250081;85;21078;-78
2022/12/25 13:23:47;;;;;;;25.12;16.50;;;;;;;5.29;92.33;101083.66;3230654;85;21047;-78
2022/12/25 13:28:43;;;;;;;24.98;15.08;;;;;;;5.31;92.47;101084.98;3245961;85;22225;-79
2022/12/25 13:33:33;;;;;;;25.15;16.17;;;;;;;5.31;92.36;101097.49;3248298;85;21172;-78
2022/12/25 13:38:28;;;;;;;21.40;15.53;;;;;;;5.32;92.57;101097.95;3266519;86;21659;-78
2022/12/25 13:43:19;;;;;;;30.45;18.42;;;;;;;5.33;92.57;101108.75;3240624;85;20999;-78
2022/12/25 13:48:15;;;;;;;29.27;17.10;;;;;;;5.33;92.63;101106.17;3249853;84;21179;-78
2022/12/25 13:53:16;;;;;;;26.27;16.48;;;;;;;5.31;92.63;101122.38;3312108;84;20940;-78
2022/12/25 13:58:15;;;;;;;30.25;16.93;;;;;;;5.26;92.49;101119.61;3285675;84;22068;-77
2022/12/25 14:03:10;;;;;;;26.80;16.25;;;;;;;5.22;92.53;101127.99;3350799;84;21041;-77
2022/12/25 14:08:14;;;;;;;27.90;17.67;;;;;;;5.17;92.69;101139.82;3349384;84;20913;-77
2022/12/25 14:18:24;;;;;;;25.02;15.43;;;;;;;5.11;92.77;101139.52;3359565;83;21512;-78
2022/12/25 14:23:16;;;;;;;31.35;18.32;;;;;;;5.09;92.81;101152.33;3361409;83;21174;-77
2022/12/25 14:28:31;;;;;;;;;;;;;;;;;;;;;
2022/12/25 14:33:18;;;;;;;22.65;15.28;;;;;;;5.03;92.88;101166.23;3332646;83;21028;-76
2022/12/25 14:38:31;;;;;;;32.63;19.75;;;;;;;5.00;92.76;101169.08;3332772;83;21240;-78
2022/12/25 14:43:26;;;;;;;26.62;15.83;;;;;;;4.96;92.78;101174.08;3350773;83;21479;-76
2022/12/25 14:48:26;;;;;;;25.77;18.00;;;;;;;4.95;92.95;101177.48;3336629;83;22399;-78
2022/12/25 14:53:22;;;;;;;25.23;17.92;;;;;;;4.93;93.01;101176.50;3327181;83;21480;-77
2022/12/25 14:58:26;;;;;;;27.35;17.90;;;;;;;4.91;92.89;101183.28;3308843;83;22142;-76
2022/12/25 15:03:35;;;;;;;31.02;18.00;;;;;;;4.89;92.92;101181.05;3347986;83;22889;-77
2022/12/25 15:08:28;;;;;;;30.85;17.30;;;;;;;4.88;92.99;101183.16;3313636;83;21961;-77
2022/12/25 15:13:20;;;;;;;32.13;18.42;;;;;;;4.86;92.99;101192.48;3309530;83;21504;-77
2022/12/25 15:18:11;;;;;;;60.60;31.12;;;;;;;4.86;93.12;101188.63;3294981;83;21591;-77
2022/12/25 15:23:03;;;;;;;59.48;31.68;;;;;;;4.86;93.26;101178.73;3280666;83;21554;-77
2022/12/25 15:27:55;;;;;;;49.38;23.98;;;;;;;4.85;93.35;101184.30;3279136;83;21079;-77
2022/12/25 15:32:47;;;;;;;55.58;27.20;;;;;;;4.83;93.05;101178.58;3324594;83;21014;-77
2022/12/25 15:37:39;;;;;;;51.05;26.25;;;;;;;4.81;93.33;101182.39;3239213;83;22567;-77
2022/12/25 15:42:30;;;;;;;45.67;24.30;;;;;;;4.82;93.36;101179.41;3235614;83;21030;-77
2022/12/25 15:47:22;;;;;;;52.73;25.40;;;;;;;4.82;93.34;101171.26;3237993;83;21249;-77
2022/12/25 15:52:16;;;;;;;54.93;24.55;;;;;;;4.81;93.34;101175.95;3294945;83;21409;-77
2022/12/25 15:57:19;;;;;;;51.13;26.15;;;;;;;4.81;93.27;101175.05;3258159;83;21011;-76
2022/12/25 16:02:18;;;;;;;56.13;25.35;;;;;;;4.79;93.21;101182.70;3328966;83;22813;-76
2022/12/25 16:07:16;;;;;;;61.60;26.93;;;;;;;4.77;93.38;101186.90;3355043;83;21053;-76
2022/12/25 16:12:08;;;;;;;53.58;26.02;;;;;;;4.77;93.53;101189.48;3325946;83;21508;-77
2022/12/25 16:17:00;;;;;;;52.30;26.20;;;;;;;4.78;93.56;101192.55;3322258;83;21003;-77
2022/12/25 16:21:51;;;;;;;54.38;25.88;;;;;;;4.77;93.60;101194.62;3283899;83;21292;-77
2022/12/25 16:26:43;;;;;;;55.88;25.32;;;;;;;4.76;93.56;101181.28;3240714;83;22514;-76
2022/12/25 16:31:35;;;;;;;54.70;24.43;;;;;;;4.75;93.51;101166.21;3278153;84;21064;-76
2022/12/25 16:36:27;;;;;;;57.03;26.73;;;;;;;4.75;93.50;101171.78;3235489;83;20939;-76
2022/12/25 16:41:18;;;;;;;47.95;21.80;;;;;;;4.76;93.61;101178.71;3266089;84;21504;-77
2022/12/25 16:46:14;;;;;;;56.15;24.65;;;;;;;4.73;93.38;101187.57;3291432;84;21000;-77
2022/12/25 16:51:20;;;;;;;44.03;21.48;;;;;;;4.73;93.56;101197.88;3288489;83;21811;-77
2022/12/25 16:56:16;;;;;;;;;;;;;;;4.73;93.59;101195.30;3337227;83;21070;-76
2022/12/25 17:01:22;;;;;;;49.05;25.20;;;;;;;4.71;93.62;101184.91;3318941;83;20800;-76
2022/12/25 17:06:25;;;;;;;50.75;22.52;;;;;;;4.71;93.68;101176.31;3095695;89;21344;-77
2022/12/25 17:11:17;;;;;;;43.05;21.60;;;;;;;4.68;93.59;101163.28;3105358;89;21085;-76
2022/12/25 17:16:25;;;;;;;49.05;23.10;;;;;;;4.66;93.41;101173.92;3082949;88;21977;-76
2022/12/25 17:21:18;;;;;;;56.33;23.60;;;;;;;4.65;93.63;101182.06;3101960;89;20992;-76
2022/12/25 17:26:10;;;;;;;66.55;33.38;;;;;;;4.66;93.49;101175.20;3112444;89;21051;-76
2022/12/25 17:31:06;;;;;;;45.40;22.73;;;;;;;4.67;93.55;101173.09;3120138;89;21043;-76
2022/12/25 17:36:11;;;;;;;48.65;26.62;;;;;;;4.66;93.50;101171.34;3090062;88;21457;-76
2022/12/25 17:41:07;;;;;;;64.27;27.90;;;;;;;4.67;93.61;101170.52;3069618;89;21550;-76
2022/12/25 17:46:06;;;;;;;43.95;23.18;;;;;;;4.68;93.75;101166.73;3115994;89;21089;-76
2022/12/25 17:51:04;;;;;;;41.13;19.95;;;;;;;4.67;93.43;101163.70;3117932;89;21015;-76
2022/12/25 17:55:57;;;;;;;40.58;21.55;;;;;;;4.63;93.31;101146.72;3079959;88;21059;-76
2022/12/25 18:00:48;;;;;;;36.53;21.33;;;;;;;4.59;93.39;101146.56;3142482;83;21169;-77
2022/12/25 18:05:40;;;;;;;41.02;20.85;;;;;;;4.57;93.32;101149.47;3363763;82;21768;-76
2022/12/25 18:10:38;;;;;;;40.70;20.00;;;;;;;4.56;93.44;101128.79;3319354;83;21050;-76
2022/12/25 18:15:29;;;;;;;39.30;20.77;;;;;;;4.54;93.41;101128.75;3321724;83;21560;-76
2022/12/25 18:20:21;;;;;;;45.30;24.32;;;;;;;4.53;93.39;101146.28;3297411;83;21004;-76
2022/12/25 18:25:12;;;;;;;45.83;24.43;;;;;;;4.54;93.42;101147.16;3334109;83;20970;-76
2022/12/25 18:30:11;;;;;;;60.03;28.85;;;;;;;4.52;93.33;101141.92;3315540;83;21158;-77
2022/12/25 18:35:07;;;;;;;52.50;27.95;;;;;;;4.53;93.57;101152.72;3320051;83;21713;-77
2022/12/25 18:40:07;;;;;;;51.20;26.33;;;;;;;4.52;93.56;101143.62;3309406;83;20998;-77
2022/12/25 18:45:14;;;;;;;;;;;;;;;;;;;;;
2022/12/25 18:55:19;;;;;;;52.08;24.32;;;;;;;4.44;93.38;101153.56;3314197;83;20932;-76
2022/12/25 19:00:17;;;;;;;43.70;23.95;;;;;;;4.43;93.38;101141.48;3301153;83;21577;-76
2022/12/25 19:05:10;;;;;;;46.50;25.57;;;;;;;4.42;93.19;101144.89;3345836;83;20988;-76
2022/12/25 19:10:05;;;;;;;44.05;23.50;;;;;;;4.42;93.38;101132.39;3337924;83;21087;-76
2022/12/25 19:14:56;;;;;;;58.65;29.18;;;;;;;4.41;93.26;101132.81;3331869;83;20959;-76
2022/12/25 19:19:48;;;;;;;55.03;27.75;;;;;;;4.40;93.50;101120.77;3254265;85;22777;-76
2022/12/25 19:24:41;;;;;;;67.72;32.25;;;;;;;4.42;93.42;101120.42;3231555;84;21608;-76
2022/12/25 19:29:41;;;;;;;64.35;30.50;;;;;;;4.45;93.87;101116.69;3258974;84;21054;-77
2022/12/25 19:34:32;;;;;;;56.90;28.20;;;;;;;4.48;93.96;101108.25;3273624;85;21042;-76
2022/12/25 19:39:27;;;;;;;67.40;31.65;;;;;;;4.48;93.71;101100.11;3232852;84;21033;-76
2022/12/25 19:44:18;;;;;;;65.03;33.13;;;;;;;4.49;93.86;101099.31;3246420;84;21095;-76
2022/12/25 19:49:13;;;;;;;58.48;29.07;;;;;;;4.48;93.92;101091.09;3284791;84;21045;-76
2022/12/25 19:54:05;;;;;;;55.70;30.32;;;;;;;4.50;93.99;101086.02;3259763;84;20961;-76
2022/12/25 19:58:59;;;;;;;53.70;27.10;;;;;;;4.51;94.17;101098.98;3265641;84;21011;-76
2022/12/25 20:03:51;;;;;;;47.20;26.45;;;;;;;4.54;94.17;101099.52;3217659;85;20999;-76
2022/12/25 20:08:43;;;;;;;49.55;24.80;;;;;;;4.54;94.03;101105.57;3276487;85;21334;-76
2022/12/25 20:13:37;;;;;;;42.60;25.10;;;;;;;4.54;94.03;101105.57;3240880;85;21515;-76
2022/12/25 20:18:29;;;;;;;51.70;27.42;;;;;;;4.54;94.02;101097.84;3287533;83;20983;-76
2022/12/25 20:23:20;;;;;;;45.43;28.10;;;;;;;4.54;94.22;101105.95;3289722;83;21257;-76
2022/12/25 20:28:11;;;;;;;41.02;24.65;;;;;;;4.56;94.23;101107.81;3285639;83;21041;-76
2022/12/25 20:33:03;;;;;;;46.20;24.90;;;;;;;4.58;94.28;101097.17;3283258;83;21886;-76
2022/12/25 20:37:56;;;;;;;45.40;24.82;;;;;;;4.58;94.24;101091.14;3364785;83;21046;-76
2022/12/25 20:42:53;;;;;;;34.67;20.37;;;;;;;4.57;94.27;101086.38;3320841;83;21101;-76
2022/12/25 20:47:46;;;;;;;40.83;24.90;;;;;;;4.56;94.21;101089.78;3334932;83;21512;-76
2022/12/25 20:52:47;;;;;;;45.52;26.27;;;;;;;4.54;94.19;101082.77;3312860;83;21003;-76
2022/12/25 20:57:49;;;;;;;40.40;23.30;;;;;;;4.55;94.36;101078.98;3370679;83;21528;-76
2022/12/25 21:02:42;;;;;;;43.98;23.95;;;;;;;4.56;94.32;101078.57;3371185;83;21058;-75
2022/12/25 21:07:38;;;;;;;43.73;22.95;;;;;;;4.54;94.27;101070.80;3320431;83;20980;-76
2022/12/25 21:12:40;;;;;;;41.20;23.12;;;;;;;4.53;94.34;101063.87;3397574;83;20987;-76
2022/12/25 21:17:38;;;;;;;41.05;24.30;;;;;;;4.53;94.30;101060.02;3362092;83;21070;-76
2022/12/25 21:22:35;;;;;;;45.83;26.90;;;;;;;4.53;94.27;101053.58;3282358;84;20932;-76
2022/12/25 21:27:30;;;;;;;46.10;25.37;;;;;;;4.53;94.37;101043.27;3314441;84;21269;-76
2022/12/25 21:37:34;;;;;;;54.00;30.55;;;;;;;4.51;94.32;101026.87;3282757;83;21657;-76
2022/12/25 21:42:26;;;;;;;46.45;25.82;;;;;;;4.50;94.32;101026.80;3302756;83;21018;-77
2022/12/25 21:47:21;;;;;;;53.13;30.23;;;;;;;4.50;94.23;101021.23;3326831;84;21941;-77
2022/12/25 21:52:13;;;;;;;44.08;25.70;;;;;;;4.47;94.21;101021.11;3305745;84;21070;-77
2022/12/25 21:57:04;;;;;;;48.83;29.72;;;;;;;4.46;94.18;101021.91;3315971;84;20938;-77
2022/12/25 22:01:55;;;;;;;51.35;29.77;;;;;;;4.45;94.25;101024.00;3288910;84;21026;-77
2022/12/25 22:22:22;;;;;;;48.80;28.07;;;;;;;4.43;94.33;100998.59;3343407;83;21505;-77
2022/12/25 22:27:15;;;;;;;46.40;26.52;;;;;;;4.43;94.34;100985.72;3318710;84;20944;-77
2022/12/25 22:32:09;;;;;;;52.10;29.72;;;;;;;4.43;94.30;100984.42;3276852;84;37749;-77
2022/12/25 22:37:01;;;;;;;47.03;28.32;;;;;;;4.44;94.26;100987.91;3298118;84;21309;-77
2022/12/25 22:41:57;;;;;;;46.90;28.55;;;;;;;4.43;94.30;100968.11;3316027;84;21023;-77
2022/12/25 22:46:48;;;;;;;47.85;29.80;;;;;;;4.43;94.36;100944.52;3302072;84;22088;-77
2022/12/25 22:51:39;;;;;;;52.38;28.87;;;;;;;4.43;94.30;100931.64;3329155;84;21004;-77
2022/12/25 22:56:30;;;;;;;51.02;27.85;;;;;;;4.38;94.16;100926.69;3317606;84;21121;-77
2022/12/25 23:01:21;;;;;;;42.13;26.62;;;;;;;4.34;94.19;100927.38;3277976;84;21708;-77
2022/12/25 23:06:12;;;;;;;41.80;22.20;;;;;;;4.28;94.05;100925.82;3310253;83;21032;-76
2022/12/25 23:11:04;;;;;;;41.55;24.67;;;;;;;4.23;94.14;100935.02;3343257;83;21547;-77
2022/12/25 23:15:55;;;;;;;41.35;24.52;;;;;;;4.16;94.08;100927.00;3315621;84;21548;-76
2022/12/25 23:26:09;;;;;;;38.00;22.73;;;;;;;4.05;94.18;100917.91;3290490;85;20972;-77
2022/12/25 23:31:02;;;;;;;34.00;21.77;;;;;;;4.02;94.10;100906.18;3264968;85;21582;-77
2022/12/25 23:35:54;;;;;;;32.95;21.20;;;;;;;3.97;94.00;100906.37;3260998;85;21780;-77
2022/12/25 23:40:45;;;;;;;32.05;19.75;;;;;;;3.95;94.13;100896.41;3219253;85;20989;-77
2022/12/25 23:45:38;;;;;;;28.27;17.52;;;;;;;3.93;94.23;100907.05;3260184;84;20999;-77
2022/12/25 23:50:29;;;;;;;31.37;20.00;;;;;;;3.92;94.22;100902.73;3255017;84;21220;-77
2022/12/25 23:55:20;;;;;;;29.12;19.25;;;;;;;3.92;94.25;100898.45;3259813;85;21563;-77
